createdAt,value
2023-03-05T00:00:33.681Z,2.83
2023-03-05T00:03:24.750Z,2.58
2023-03-05T00:05:59.083Z,3.75
2023-03-05T00:08:29.413Z,2.28
2023-03-05T00:13:29.528Z,2.83
2023-03-05T00:15:59.881Z,1.70
2023-03-05T00:18:31.581Z,3.13
2023-03-05T00:21:01.720Z,2.70
2023-03-05T00:23:31.194Z,2.45
2023-03-05T00:26:05.756Z,3.17
2023-03-05T00:28:35.183Z,2.45
2023-03-05T00:31:06.088Z,2.35
2023-03-05T00:33:37.415Z,2.00
2023-03-05T00:36:08.687Z,3.55
2023-03-05T00:38:38.023Z,2.95
2023-03-05T00:41:08.582Z,2.22
2023-03-05T00:43:37.899Z,3.17
2023-03-05T00:46:07.706Z,2.80
2023-03-05T00:48:38.912Z,3.88
2023-03-05T00:51:09.477Z,2.22
2023-03-05T00:53:38.827Z,1.83
2023-03-05T00:56:09.744Z,2.55
2023-03-05T00:58:39.073Z,1.98
2023-03-05T01:01:09.384Z,2.38
2023-03-05T01:03:40.326Z,1.25
2023-03-05T01:06:12.358Z,1.52
2023-03-05T01:08:41.677Z,1.35
2023-03-05T01:11:12.789Z,1.45
2023-03-05T01:13:42.472Z,1.42
2023-03-05T01:16:12.667Z,1.70
2023-03-05T01:18:43.759Z,1.10
2023-03-05T01:21:13.486Z,1.75
2023-03-05T01:23:42.836Z,1.40
2023-03-05T01:26:12.840Z,1.25
2023-03-05T01:28:42.124Z,1.48
2023-03-05T01:31:12.332Z,2.00
2023-03-05T01:33:43.171Z,1.45
2023-03-05T01:36:16.211Z,2.40
2023-03-05T01:38:46.144Z,1.10
2023-03-05T01:41:17.545Z,1.48
2023-03-05T01:43:47.855Z,1.38
2023-03-05T01:46:27.863Z,1.60
2023-03-05T01:49:04.383Z,2.00
2023-03-05T01:51:38.613Z,2.00
2023-03-05T01:54:10.693Z,1.55
2023-03-05T01:56:41.923Z,1.35
2023-03-05T01:59:13.118Z,1.20
2023-03-05T02:01:46.118Z,1.48
2023-03-05T02:04:20.378Z,1.10
2023-03-05T02:06:50.849Z,2.00
2023-03-05T02:09:23.604Z,2.13
2023-03-05T02:11:54.840Z,1.50
2023-03-05T02:14:24.675Z,1.70
2023-03-05T02:16:54.812Z,1.98
2023-03-05T02:19:25.869Z,1.80
2023-03-05T02:21:57.163Z,1.40
2023-03-05T02:24:38.200Z,1.25
2023-03-05T02:27:09.146Z,1.25
2023-03-05T02:29:43.437Z,1.75
2023-03-05T02:32:13.622Z,1.13
2023-03-05T02:34:43.253Z,1.10
2023-03-05T02:37:15.022Z,0.90
2023-03-05T02:42:14.384Z,1.33
2023-03-05T02:44:43.902Z,1.15
2023-03-05T02:47:14.694Z,1.10
2023-03-05T02:49:44.478Z,0.80
2023-03-05T02:52:15.915Z,0.60
2023-03-05T02:57:15.045Z,0.85
2023-03-05T02:59:44.468Z,1.00
2023-03-05T03:02:14.735Z,1.00
2023-03-05T03:04:44.341Z,1.55
2023-03-05T03:07:17.150Z,1.45
2023-03-05T03:09:46.813Z,1.42
2023-03-05T03:12:16.599Z,1.08
2023-03-05T03:14:46.225Z,1.20
2023-03-05T03:17:17.852Z,1.48
2023-03-05T03:19:48.729Z,1.80
2023-03-05T03:22:19.993Z,1.00
2023-03-05T03:24:49.812Z,1.98
2023-03-05T03:27:19.708Z,1.27
2023-03-05T03:29:49.041Z,1.35
2023-03-05T03:32:19.064Z,1.25
2023-03-05T03:34:48.458Z,2.15
2023-03-05T03:37:19.890Z,1.30
2023-03-05T03:39:49.331Z,1.15
2023-03-05T03:42:20.684Z,1.10
2023-03-05T03:44:50.624Z,1.85
2023-03-05T03:47:20.824Z,1.40
2023-03-05T03:49:50.213Z,1.70
2023-03-05T03:52:23.233Z,1.88
2023-03-05T03:54:55.891Z,1.30
2023-03-05T03:57:26.270Z,1.02
2023-03-05T03:59:55.796Z,3.20
2023-03-05T04:02:25.718Z,1.25
2023-03-05T04:04:55.429Z,1.23
2023-03-05T04:07:26.574Z,0.95
2023-03-05T04:09:56.133Z,1.73
2023-03-05T04:12:25.803Z,1.10
2023-03-05T04:14:55.382Z,0.98
2023-03-05T04:17:25.239Z,1.17
2023-03-05T04:19:54.542Z,1.58
2023-03-05T04:22:25.984Z,0.70
2023-03-05T04:27:25.204Z,1.08
2023-03-05T04:29:54.889Z,0.95
2023-03-05T04:32:29.993Z,1.17
2023-03-05T04:34:59.726Z,0.90
2023-03-05T04:37:30.933Z,1.42
2023-03-05T04:40:00.285Z,2.05
2023-03-05T04:42:29.989Z,2.17
2023-03-05T04:44:59.301Z,1.92
2023-03-05T04:47:29.169Z,1.77
2023-03-05T04:49:58.469Z,1.27
2023-03-05T04:52:30.406Z,1.70
2023-03-05T04:54:59.898Z,1.25
2023-03-05T04:57:30.699Z,1.10
2023-03-05T05:00:00.991Z,1.67
2023-03-05T05:05:00.426Z,1.33
2023-03-05T05:07:33.045Z,2.28
2023-03-05T05:10:02.433Z,1.17
2023-03-05T05:12:32.430Z,1.17
2023-03-05T05:15:02.531Z,1.60
2023-03-05T05:17:33.580Z,1.90
2023-03-05T05:20:04.883Z,1.85
2023-03-05T05:22:37.140Z,1.25
2023-03-05T05:25:07.023Z,1.90
2023-03-05T05:27:36.936Z,1.67
2023-03-05T05:30:08.031Z,1.30
2023-03-05T05:32:38.310Z,1.77
2023-03-05T05:35:08.866Z,1.07
2023-03-05T05:37:40.393Z,1.75
2023-03-05T05:40:13.845Z,1.10
2023-03-05T05:42:44.792Z,1.80
2023-03-05T05:45:14.524Z,0.80
2023-03-05T05:47:44.618Z,1.73
2023-03-05T05:50:15.209Z,1.45
2023-03-05T05:52:46.596Z,1.75
2023-03-05T05:57:45.300Z,1.65
2023-03-05T06:00:17.193Z,1.63
2023-03-05T06:02:47.562Z,1.73
2023-03-05T06:05:17.084Z,1.10
2023-03-05T06:07:48.647Z,1.60
2023-03-05T06:10:18.124Z,2.05
2023-03-05T06:12:48.059Z,1.20
2023-03-05T06:15:17.383Z,1.70
2023-03-05T06:17:48.273Z,1.33
2023-03-05T06:20:17.691Z,1.67
2023-03-05T06:22:48.894Z,0.90
2023-03-05T06:25:18.765Z,0.90
2023-03-05T06:27:49.228Z,1.00
2023-03-05T06:30:18.895Z,1.10
2023-03-05T06:32:48.706Z,1.77
2023-03-05T06:35:18.288Z,1.05
2023-03-05T06:37:50.373Z,1.47
2023-03-05T06:40:19.909Z,1.13
2023-03-05T06:42:49.606Z,1.10
2023-03-05T06:45:19.115Z,1.13
2023-03-05T06:47:48.998Z,1.33
2023-03-05T06:50:18.372Z,1.55
2023-03-05T06:52:51.256Z,1.42
2023-03-05T06:55:20.791Z,1.50
2023-03-05T06:57:50.502Z,1.40
2023-03-05T07:00:20.574Z,1.85
2023-03-05T07:02:50.611Z,2.33
2023-03-05T07:05:20.386Z,1.25
2023-03-05T07:07:51.570Z,2.08
2023-03-05T07:10:21.025Z,1.40
2023-03-05T07:12:51.254Z,1.77
2023-03-05T07:15:20.767Z,1.58
2023-03-05T07:17:51.221Z,1.33
2023-03-05T07:20:20.793Z,1.20
2023-03-05T07:22:51.933Z,1.38
2023-03-05T07:25:21.974Z,1.73
2023-03-05T07:27:51.958Z,1.05
2023-03-05T07:30:21.647Z,1.40
2023-03-05T07:32:51.502Z,1.07
2023-03-05T07:35:21.043Z,1.00
2023-03-05T07:37:52.676Z,1.15
2023-03-05T07:40:22.605Z,1.10
2023-03-05T07:42:52.589Z,1.40
2023-03-05T07:45:22.037Z,1.25
2023-03-05T07:47:52.668Z,1.30
2023-03-05T07:50:22.192Z,1.00
2023-03-05T07:52:53.388Z,1.10
2023-03-05T07:55:22.806Z,0.90
2023-03-05T07:57:53.421Z,1.45
2023-03-05T08:00:23.346Z,0.97
2023-03-05T08:02:53.330Z,1.20
2023-03-05T08:05:22.943Z,0.85
2023-03-05T08:07:54.836Z,1.00
2023-03-05T08:12:54.023Z,0.60
2023-03-05T08:15:23.488Z,0.70
2023-03-05T08:17:53.435Z,1.00
2023-03-05T08:20:22.927Z,1.05
2023-03-05T08:22:54.235Z,0.70
2023-03-05T08:25:24.206Z,0.93
2023-03-05T08:27:54.055Z,0.88
2023-03-05T08:30:27.607Z,0.63
2023-03-05T08:32:57.696Z,0.50
2023-03-05T08:35:27.161Z,0.47
2023-03-05T08:37:58.618Z,0.88
2023-03-05T08:42:57.212Z,0.80
2023-03-05T08:45:26.574Z,0.57
2023-03-05T08:47:57.618Z,1.10
2023-03-05T08:50:27.220Z,0.65
2023-03-05T08:52:58.949Z,0.82
2023-03-05T08:57:57.602Z,0.40
2023-03-05T09:00:27.393Z,0.65
2023-03-05T09:02:57.114Z,0.30
2023-03-05T09:05:26.503Z,0.60
2023-03-05T09:08:00.481Z,0.80
2023-03-05T09:10:30.380Z,0.70
2023-03-05T09:13:00.514Z,0.35
2023-03-05T09:15:29.871Z,0.70
2023-03-05T09:17:59.992Z,0.38
2023-03-05T09:20:29.639Z,0.95
2023-03-05T09:23:00.882Z,0.47
2023-03-05T09:25:30.547Z,2.08
2023-03-05T09:28:00.365Z,2.03
2023-03-05T09:30:29.818Z,1.10
2023-03-05T09:32:59.525Z,1.17
2023-03-05T09:35:29.262Z,0.63
2023-03-05T09:38:00.832Z,1.38
2023-03-05T09:40:38.914Z,0.55
2023-03-05T09:43:15.963Z,0.75
2023-03-05T09:45:59.168Z,0.55
2023-03-05T09:48:40.817Z,0.35
2023-03-05T09:51:15.636Z,1.02
2023-03-05T09:53:50.697Z,0.60
2023-03-05T09:56:24.832Z,0.38
2023-03-05T09:58:57.638Z,0.40
2023-03-05T10:01:33.667Z,0.68
2023-03-05T10:04:09.117Z,0.25
2023-03-05T10:06:42.966Z,0.40
2023-03-05T10:09:24.179Z,0.82
2023-03-05T10:11:58.341Z,0.35
2023-03-05T10:15:05.535Z,0.50
2023-03-05T10:17:50.633Z,0.50
2023-03-05T10:20:42.950Z,0.77
2023-03-05T10:23:44.350Z,0.28
2023-03-05T10:26:26.299Z,0.57
2023-03-05T10:29:06.598Z,0.40
2023-03-05T10:31:47.934Z,0.30
2023-03-05T10:34:42.385Z,1.23
2023-03-05T10:37:38.121Z,1.23
2023-03-05T10:40:22.144Z,0.52
2023-03-05T10:43:02.847Z,0.68
2023-03-05T10:45:36.574Z,0.70
2023-03-05T10:48:14.384Z,1.38
2023-03-05T10:50:48.054Z,0.40
2023-03-05T10:53:26.019Z,0.20
2023-03-05T10:55:56.790Z,0.30
2023-03-05T10:58:28.272Z,1.20
2023-03-05T11:03:56.294Z,0.30
2023-03-05T11:06:35.169Z,0.50
2023-03-05T11:09:29.389Z,0.40
2023-03-05T11:12:17.484Z,0.30
2023-03-05T11:15:03.234Z,0.40
2023-03-05T11:17:34.864Z,0.43
2023-03-05T11:20:30.975Z,0.50
2023-03-05T11:23:05.856Z,0.63
2023-03-05T11:25:37.171Z,0.45
2023-03-05T11:28:06.553Z,0.70
2023-03-05T11:30:39.054Z,0.60
2023-03-05T11:33:15.597Z,0.40
2023-03-05T11:35:46.189Z,0.30
2023-03-05T11:38:20.795Z,0.75
2023-03-05T11:40:53.146Z,0.98
2023-03-05T11:43:24.986Z,0.38
2023-03-05T11:46:03.931Z,0.40
2023-03-05T11:48:38.281Z,2.47
2023-03-05T11:51:17.862Z,0.32
2023-03-05T11:53:49.581Z,1.10
2023-03-05T11:56:23.150Z,0.68
2023-03-05T11:58:59.165Z,0.73
2023-03-05T12:01:34.168Z,0.60
2023-03-05T12:04:08.851Z,0.50
2023-03-05T12:06:42.857Z,0.50
2023-03-05T12:09:18.289Z,0.40
2023-03-05T12:11:51.303Z,0.30
2023-03-05T12:14:27.204Z,0.60
2023-03-05T12:17:06.154Z,0.60
2023-03-05T12:19:42.790Z,1.38
2023-03-05T12:22:21.902Z,0.90
2023-03-05T12:24:52.401Z,0.73
2023-03-05T12:27:35.893Z,0.40
2023-03-05T12:30:09.022Z,0.30
2023-03-05T12:33:04.043Z,0.40
2023-03-05T12:35:38.066Z,0.30
2023-03-05T12:38:32.601Z,0.90
2023-03-05T12:41:44.782Z,0.47
2023-03-05T12:44:23.844Z,0.30
2023-03-05T12:47:20.339Z,0.50
2023-03-05T12:49:52.204Z,0.80
2023-03-05T12:52:31.817Z,0.50
2023-03-05T12:55:22.359Z,0.22
2023-03-05T12:57:58.490Z,0.20
2023-03-05T13:00:34.103Z,0.50
2023-03-05T13:03:10.298Z,0.38
2023-03-05T13:05:49.305Z,0.57
2023-03-05T13:08:23.605Z,0.50
2023-03-05T13:10:56.621Z,0.50
2023-03-05T13:13:29.135Z,0.47
2023-03-05T13:15:59.988Z,0.40
2023-03-05T13:18:31.205Z,0.50
2023-03-05T13:21:07.362Z,0.38
2023-03-05T13:23:37.307Z,0.60
2023-03-05T13:26:15.687Z,0.60
2023-03-05T13:28:46.102Z,0.40
2023-03-05T13:33:55.650Z,0.45
2023-03-05T13:36:28.715Z,0.30
2023-03-05T13:38:58.215Z,0.30
2023-03-05T13:41:28.930Z,0.40
2023-03-05T13:44:00.300Z,0.40
2023-03-05T13:46:34.117Z,0.30
2023-03-05T13:49:19.165Z,0.30
2023-03-05T13:51:52.375Z,0.68
2023-03-05T13:54:23.391Z,0.57
2023-03-05T13:56:58.977Z,0.40
2023-03-05T13:59:31.108Z,1.17
2023-03-05T14:02:02.892Z,0.40
2023-03-05T14:04:37.488Z,0.40
2023-03-05T14:07:24.708Z,0.50
2023-03-05T14:09:54.670Z,0.38
2023-03-05T14:12:30.604Z,0.60
2023-03-05T14:15:02.569Z,0.40
2023-03-05T14:17:41.048Z,0.60
2023-03-05T14:20:27.689Z,0.63
2023-03-05T14:23:00.256Z,0.60
2023-03-05T14:25:36.796Z,0.40
2023-03-05T14:28:08.165Z,0.73
2023-03-05T14:33:07.852Z,0.60
2023-03-05T14:38:35.255Z,0.47
2023-03-05T14:41:24.324Z,0.75
2023-03-05T14:43:54.614Z,0.80
2023-03-05T14:46:24.137Z,0.88
2023-03-05T14:48:54.684Z,0.80
2023-03-05T14:51:25.218Z,0.32
2023-03-05T14:56:27.990Z,0.63
2023-03-05T14:58:58.184Z,0.25
2023-03-05T15:01:27.712Z,0.60
2023-03-05T15:03:57.482Z,0.52
2023-03-05T15:06:33.049Z,0.60
2023-03-05T15:09:05.445Z,0.50
2023-03-05T15:11:34.945Z,0.68
2023-03-05T15:14:05.344Z,0.57
2023-03-05T15:16:35.544Z,0.50
2023-03-05T15:19:05.762Z,0.25
2023-03-05T15:21:37.148Z,0.30
2023-03-05T15:24:11.257Z,0.50
2023-03-05T15:26:41.036Z,0.40
2023-03-05T15:29:11.121Z,0.40
2023-03-05T15:31:40.845Z,0.40
2023-03-05T15:34:11.070Z,0.57
2023-03-05T15:36:40.399Z,0.77
2023-03-05T15:39:11.677Z,0.57
2023-03-05T15:41:41.022Z,0.70
2023-03-05T15:44:10.878Z,0.85
2023-03-05T15:46:47.975Z,0.52
2023-03-05T15:49:20.401Z,0.85
2023-03-05T15:51:49.698Z,0.80
2023-03-05T15:54:20.875Z,0.50
2023-03-05T15:56:50.215Z,1.33
2023-03-05T15:59:20.422Z,0.70
2023-03-05T16:01:52.614Z,0.85
2023-03-05T16:04:22.481Z,0.70
2023-03-05T16:06:53.928Z,1.10
2023-03-05T16:09:25.691Z,0.88
2023-03-05T16:11:55.661Z,0.93
2023-03-05T16:14:27.920Z,0.68
2023-03-05T16:16:59.714Z,0.90
2023-03-05T16:19:30.785Z,1.20
2023-03-05T16:22:00.238Z,0.68
2023-03-05T16:24:33.502Z,1.02
2023-03-05T16:27:04.721Z,1.10
2023-03-05T16:29:34.741Z,1.30
2023-03-05T16:32:08.442Z,1.05
2023-03-05T16:34:39.066Z,0.60
2023-03-05T16:37:08.766Z,1.05
2023-03-05T16:39:46.550Z,1.30
2023-03-05T16:42:16.727Z,1.05
2023-03-05T16:44:47.725Z,1.20
2023-03-05T16:47:17.224Z,1.10
2023-03-05T16:49:47.353Z,1.20
2023-03-05T16:52:20.833Z,1.15
2023-03-05T16:54:52.230Z,1.17
2023-03-05T16:57:23.907Z,0.90
2023-03-05T16:59:54.577Z,1.00
2023-03-05T17:02:24.457Z,1.10
2023-03-05T17:04:56.405Z,0.85
2023-03-05T17:07:27.209Z,1.33
2023-03-05T17:09:58.740Z,1.00
2023-03-05T17:12:28.331Z,0.85
2023-03-05T17:14:58.039Z,1.38
2023-03-05T17:17:29.041Z,1.58
2023-03-05T17:19:58.862Z,1.50
2023-03-05T17:22:28.226Z,1.55
2023-03-05T17:24:59.409Z,1.42
2023-03-05T17:27:29.864Z,1.58
2023-03-05T17:29:59.573Z,1.50
2023-03-05T17:32:29.352Z,1.77
2023-03-05T17:34:59.439Z,1.40
2023-03-05T17:37:28.867Z,1.15
2023-03-05T17:40:04.931Z,1.38
2023-03-05T17:42:34.271Z,2.45
2023-03-05T17:45:04.774Z,2.13
2023-03-05T17:47:34.293Z,1.83
2023-03-05T17:50:04.715Z,1.75
2023-03-05T17:52:34.081Z,2.15
2023-03-05T17:55:09.652Z,2.10
2023-03-05T17:57:41.679Z,2.28
2023-03-05T18:00:18.881Z,2.10
2023-03-05T18:02:49.576Z,3.50
2023-03-05T18:05:23.805Z,2.78
2023-03-05T18:08:00.069Z,2.92
2023-03-05T18:10:33.338Z,3.20
2023-03-05T18:13:03.073Z,2.00
2023-03-05T18:15:32.878Z,2.50
2023-03-05T18:18:03.067Z,2.00
2023-03-05T18:20:36.425Z,2.85
2023-03-05T18:23:07.571Z,2.63
2023-03-05T18:25:38.810Z,2.90
2023-03-05T18:28:10.845Z,2.22
2023-03-05T18:30:44.629Z,2.55
2023-03-05T18:33:19.830Z,3.15
2023-03-05T18:35:52.581Z,2.00
2023-03-05T18:38:23.874Z,2.45
2023-03-05T18:40:56.764Z,2.00
2023-03-05T18:43:27.124Z,2.17
2023-03-05T18:45:57.532Z,1.95
2023-03-05T18:48:28.060Z,2.72
2023-03-05T18:50:58.127Z,2.80
2023-03-05T18:53:27.490Z,2.40
2023-03-05T18:55:58.626Z,2.63
2023-03-05T18:58:28.055Z,2.67
2023-03-05T19:00:57.736Z,2.45
2023-03-05T19:03:27.678Z,2.30
2023-03-05T19:05:57.738Z,2.20
2023-03-05T19:08:27.740Z,2.35
2023-03-05T19:11:01.264Z,2.58
2023-03-05T19:13:40.153Z,3.30
2023-03-05T19:16:12.778Z,2.97
2023-03-05T19:19:02.005Z,3.17
2023-03-05T19:21:32.147Z,2.55
2023-03-05T19:24:01.549Z,3.10
2023-03-05T19:26:32.983Z,3.47
2023-03-05T19:29:04.071Z,2.70
2023-03-05T19:31:33.805Z,2.90
2023-03-05T19:34:04.563Z,2.45
2023-03-05T19:36:35.993Z,2.72
2023-03-05T19:41:37.869Z,2.10
2023-03-05T19:44:11.685Z,2.40
2023-03-05T19:46:42.085Z,2.30
2023-03-05T19:49:11.804Z,2.15
2023-03-05T19:51:44.064Z,2.33
2023-03-05T19:54:14.713Z,3.13
2023-03-05T19:59:18.208Z,5.32
2023-03-05T20:01:48.857Z,3.90
2023-03-05T20:04:20.298Z,4.15
2023-03-05T20:06:50.403Z,3.83
2023-03-05T20:09:20.428Z,3.50
2023-03-05T20:11:51.717Z,4.10
2023-03-05T20:14:21.998Z,3.60
2023-03-05T20:16:51.981Z,3.95
2023-03-05T20:19:22.154Z,3.50
2023-03-05T20:21:51.850Z,4.82
2023-03-05T20:24:22.642Z,3.63
2023-03-05T20:26:53.962Z,3.25
2023-03-05T20:29:23.410Z,2.63
2023-03-05T20:31:56.784Z,4.18
2023-03-05T20:34:28.311Z,2.80
2023-03-05T20:37:00.055Z,2.80
2023-03-05T20:39:29.725Z,2.97
2023-03-05T20:42:01.140Z,4.90
2023-03-05T20:47:46.465Z,3.35
2023-03-05T20:50:16.649Z,2.80
2023-03-05T20:52:46.421Z,2.80
2023-03-05T20:55:15.929Z,3.00
2023-03-05T20:57:47.342Z,4.00
2023-03-05T21:02:47.458Z,3.70
2023-03-05T21:05:18.322Z,4.03
2023-03-05T21:07:48.767Z,3.08
2023-03-05T21:10:19.086Z,4.53
2023-03-05T21:12:51.845Z,3.53
2023-03-05T21:15:28.964Z,2.72
2023-03-05T21:17:59.153Z,4.57
2023-03-05T21:20:31.591Z,4.07
2023-03-05T21:23:02.147Z,3.50
2023-03-05T21:25:32.725Z,3.73
2023-03-05T21:30:36.351Z,2.50
2023-03-05T21:33:07.970Z,2.10
2023-03-05T21:35:38.843Z,2.10
2023-03-05T21:38:10.199Z,2.22
2023-03-05T21:40:43.878Z,2.15
2023-03-05T21:43:16.605Z,2.33
2023-03-05T21:45:47.462Z,2.10
2023-03-05T21:48:18.227Z,2.13
2023-03-05T21:50:48.741Z,2.08
2023-03-05T21:53:19.193Z,3.35
2023-03-05T21:56:25.520Z,2.83
2023-03-05T21:58:56.736Z,2.85
2023-03-05T22:01:27.657Z,1.63
2023-03-05T22:03:57.420Z,2.50
2023-03-05T22:06:26.897Z,2.13
2023-03-05T22:08:56.907Z,1.85
2023-03-05T22:11:26.265Z,1.80
2023-03-05T22:13:57.389Z,2.38
2023-03-05T22:16:29.549Z,2.15
2023-03-05T22:18:59.833Z,2.53
2023-03-05T22:21:30.987Z,2.15
2023-03-05T22:24:01.319Z,2.22
2023-03-05T22:26:36.895Z,2.15
2023-03-05T22:29:11.974Z,3.10
2023-03-05T22:31:42.052Z,2.88
2023-03-05T22:34:11.935Z,1.85
2023-03-05T22:36:41.236Z,2.30
2023-03-05T22:39:10.976Z,2.65
2023-03-05T22:41:43.070Z,1.80
2023-03-05T22:44:14.245Z,3.97
2023-03-05T22:49:15.151Z,2.08
2023-03-05T22:51:45.177Z,1.97
2023-03-05T22:54:14.957Z,1.80
2023-03-05T22:56:44.290Z,1.33
2023-03-05T22:59:15.900Z,1.88
2023-03-05T23:01:45.638Z,1.60
2023-03-05T23:04:49.665Z,2.40
2023-03-05T23:07:20.376Z,2.22
2023-03-05T23:12:23.325Z,2.00
2023-03-05T23:14:56.259Z,1.88
2023-03-05T23:17:25.633Z,2.17
2023-03-05T23:19:56.109Z,1.73
2023-03-05T23:22:25.636Z,2.13
2023-03-05T23:24:55.382Z,1.60
2023-03-05T23:27:24.750Z,1.35
2023-03-05T23:30:19.858Z,1.42
2023-03-05T23:32:52.185Z,1.40
2023-03-05T23:35:25.588Z,1.45
2023-03-05T23:37:56.731Z,2.10
2023-03-05T23:40:28.972Z,1.10
2023-03-05T23:42:58.565Z,1.50
2023-03-05T23:45:30.414Z,1.73
2023-03-05T23:47:59.907Z,1.50
2023-03-05T23:50:31.995Z,1.55
2023-03-05T23:53:02.398Z,1.63
2023-03-05T23:55:34.663Z,1.85
2023-03-05T23:58:04.744Z,1.42
